sensor_id;sensor_type;location;lat;lon;timestamp;temperature;humidity
5459;DHT22;2752;49.992;8.422;2023-04-03T00:00:19;5.50;1.00
5459;DHT22;2752;49.992;8.422;2023-04-03T00:02:46;5.50;1.00
5459;DHT22;2752;49.992;8.422;2023-04-03T00:05:13;5.50;1.00
5459;DHT22;2752;49.992;8.422;2023-04-03T00:07:40;5.60;1.00
5459;DHT22;2752;49.992;8.422;2023-04-03T00:10:08;5.50;1.00
5459;DHT22;2752;49.992;8.422;2023-04-03T00:12:36;5.50;1.00
5459;DHT22;2752;49.992;8.422;2023-04-03T00:15:03;5.50;1.00
5459;DHT22;2752;49.992;8.422;2023-04-03T00:17:30;5.50;1.00
5459;DHT22;2752;49.992;8.422;2023-04-03T00:19:57;5.40;1.00
5459;DHT22;2752;49.992;8.422;2023-04-03T00:22:24;5.50;1.00
5459;DHT22;2752;49.992;8.422;2023-04-03T00:24:51;5.50;1.00
5459;DHT22;2752;49.992;8.422;2023-04-03T00:27:18;5.40;1.00
5459;DHT22;2752;49.992;8.422;2023-04-03T00:29:46;5.40;1.00
5459;DHT22;2752;49.992;8.422;2023-04-03T00:32:13;5.40;1.00
5459;DHT22;2752;49.992;8.422;2023-04-03T00:34:40;5.40;1.00
5459;DHT22;2752;49.992;8.422;2023-04-03T00:37:07;5.40;1.00
5459;DHT22;2752;49.992;8.422;2023-04-03T00:39:33;5.40;1.00
5459;DHT22;2752;49.992;8.422;2023-04-03T00:42:00;5.40;1.00
5459;DHT22;2752;49.992;8.422;2023-04-03T00:47:29;5.50;1.00
5459;DHT22;2752;49.992;8.422;2023-04-03T00:49:57;5.50;1.00
5459;DHT22;2752;49.992;8.422;2023-04-03T00:52:28;5.50;1.00
5459;DHT22;2752;49.992;8.422;2023-04-03T00:55:00;5.50;1.00
5459;DHT22;2752;49.992;8.422;2023-04-03T00:57:29;5.50;1.00
5459;DHT22;2752;49.992;8.422;2023-04-03T01:00:00;5.50;1.00
5459;DHT22;2752;49.992;8.422;2023-04-03T01:02:29;5.50;1.00
5459;DHT22;2752;49.992;8.422;2023-04-03T01:04:56;5.50;1.00
5459;DHT22;2752;49.992;8.422;2023-04-03T01:07:25;5.60;1.00
5459;DHT22;2752;49.992;8.422;2023-04-03T01:09:56;5.60;1.00
5459;DHT22;2752;49.992;8.422;2023-04-03T01:12:25;5.40;1.00
5459;DHT22;2752;49.992;8.422;2023-04-03T01:14:54;5.80;1.00
5459;DHT22;2752;49.992;8.422;2023-04-03T01:17:27;5.60;1.00
5459;DHT22;2752;49.992;8.422;2023-04-03T01:20:08;5.60;1.00
5459;DHT22;2752;49.992;8.422;2023-04-03T01:22:43;5.60;1.00
5459;DHT22;2752;49.992;8.422;2023-04-03T01:25:12;5.60;1.00
5459;DHT22;2752;49.992;8.422;2023-04-03T01:27:39;5.60;1.00
5459;DHT22;2752;49.992;8.422;2023-04-03T01:30:07;5.70;1.00
5459;DHT22;2752;49.992;8.422;2023-04-03T01:32:35;5.60;1.00
5459;DHT22;2752;49.992;8.422;2023-04-03T01:35:02;5.60;1.00
5459;DHT22;2752;49.992;8.422;2023-04-03T01:37:29;5.60;1.00
5459;DHT22;2752;49.992;8.422;2023-04-03T01:39:56;5.70;1.00
5459;DHT22;2752;49.992;8.422;2023-04-03T01:42:23;5.70;1.00
5459;DHT22;2752;49.992;8.422;2023-04-03T01:44:49;5.70;1.00
5459;DHT22;2752;49.992;8.422;2023-04-03T01:47:16;5.70;1.00
5459;DHT22;2752;49.992;8.422;2023-04-03T01:49:44;5.70;1.00
5459;DHT22;2752;49.992;8.422;2023-04-03T01:52:11;5.60;1.00
5459;DHT22;2752;49.992;8.422;2023-04-03T01:54:37;5.60;1.00
5459;DHT22;2752;49.992;8.422;2023-04-03T01:57:04;5.60;1.00
5459;DHT22;2752;49.992;8.422;2023-04-03T01:59:31;5.60;1.00
5459;DHT22;2752;49.992;8.422;2023-04-03T02:01:57;5.60;1.00
5459;DHT22;2752;49.992;8.422;2023-04-03T02:04:24;5.60;1.00
5459;DHT22;2752;49.992;8.422;2023-04-03T02:06:52;5.60;1.00
5459;DHT22;2752;49.992;8.422;2023-04-03T02:09:18;5.70;1.00
5459;DHT22;2752;49.992;8.422;2023-04-03T02:11:45;5.60;1.00
5459;DHT22;2752;49.992;8.422;2023-04-03T02:14:12;5.70;1.00
5459;DHT22;2752;49.992;8.422;2023-04-03T02:16:39;5.70;1.00
5459;DHT22;2752;49.992;8.422;2023-04-03T02:19:06;5.70;1.00
5459;DHT22;2752;49.992;8.422;2023-04-03T02:21:33;5.70;1.00
5459;DHT22;2752;49.992;8.422;2023-04-03T02:24:01;5.60;1.00
5459;DHT22;2752;49.992;8.422;2023-04-03T02:28:55;5.60;1.00
5459;DHT22;2752;49.992;8.422;2023-04-03T02:31:22;5.60;1.00
5459;DHT22;2752;49.992;8.422;2023-04-03T02:36:17;5.60;1.00
5459;DHT22;2752;49.992;8.422;2023-04-03T02:38:44;5.60;1.00
5459;DHT22;2752;49.992;8.422;2023-04-03T02:41:12;5.60;1.00
5459;DHT22;2752;49.992;8.422;2023-04-03T02:43:40;5.60;1.00
5459;DHT22;2752;49.992;8.422;2023-04-03T02:46:07;5.50;1.00
5459;DHT22;2752;49.992;8.422;2023-04-03T02:48:34;5.50;1.00
5459;DHT22;2752;49.992;8.422;2023-04-03T02:51:01;5.50;1.00
5459;DHT22;2752;49.992;8.422;2023-04-03T02:53:27;5.50;1.00
5459;DHT22;2752;49.992;8.422;2023-04-03T02:55:54;5.50;1.00
5459;DHT22;2752;49.992;8.422;2023-04-03T02:58:22;5.50;1.00
5459;DHT22;2752;49.992;8.422;2023-04-03T03:00:49;5.50;1.00
5459;DHT22;2752;49.992;8.422;2023-04-03T03:03:16;5.60;1.00
5459;DHT22;2752;49.992;8.422;2023-04-03T03:05:43;5.60;1.00
5459;DHT22;2752;49.992;8.422;2023-04-03T03:08:09;5.60;1.00
5459;DHT22;2752;49.992;8.422;2023-04-03T03:10:36;5.50;1.00
5459;DHT22;2752;49.992;8.422;2023-04-03T03:13:03;5.50;1.00
5459;DHT22;2752;49.992;8.422;2023-04-03T03:15:31;5.40;1.00
5459;DHT22;2752;49.992;8.422;2023-04-03T03:17:58;5.40;1.00
5459;DHT22;2752;49.992;8.422;2023-04-03T03:20:25;5.40;1.00
5459;DHT22;2752;49.992;8.422;2023-04-03T03:22:52;5.40;1.00
5459;DHT22;2752;49.992;8.422;2023-04-03T03:25:18;5.40;1.00
5459;DHT22;2752;49.992;8.422;2023-04-03T03:27:45;5.40;1.00
5459;DHT22;2752;49.992;8.422;2023-04-03T03:30:12;5.40;1.00
5459;DHT22;2752;49.992;8.422;2023-04-03T03:32:41;5.50;1.00
5459;DHT22;2752;49.992;8.422;2023-04-03T03:35:08;5.60;1.00
5459;DHT22;2752;49.992;8.422;2023-04-03T03:37:35;5.40;1.00
5459;DHT22;2752;49.992;8.422;2023-04-03T03:40:02;5.50;1.00
5459;DHT22;2752;49.992;8.422;2023-04-03T03:42:29;5.40;1.00
5459;DHT22;2752;49.992;8.422;2023-04-03T03:44:55;5.40;1.00
5459;DHT22;2752;49.992;8.422;2023-04-03T03:47:22;5.30;1.00
5459;DHT22;2752;49.992;8.422;2023-04-03T03:49:50;5.20;1.00
5459;DHT22;2752;49.992;8.422;2023-04-03T03:52:17;5.20;1.00
5459;DHT22;2752;49.992;8.422;2023-04-03T03:54:44;5.20;1.00
5459;DHT22;2752;49.992;8.422;2023-04-03T03:57:11;5.30;1.00
5459;DHT22;2752;49.992;8.422;2023-04-03T03:59:37;5.30;1.00
5459;DHT22;2752;49.992;8.422;2023-04-03T04:02:06;5.20;1.00
5459;DHT22;2752;49.992;8.422;2023-04-03T04:04:33;5.20;1.00
5459;DHT22;2752;49.992;8.422;2023-04-03T04:07:01;5.20;1.00
5459;DHT22;2752;49.992;8.422;2023-04-03T04:09:28;5.20;1.00
5459;DHT22;2752;49.992;8.422;2023-04-03T04:11:55;5.10;1.00
5459;DHT22;2752;49.992;8.422;2023-04-03T04:14:21;5.00;1.00
5459;DHT22;2752;49.992;8.422;2023-04-03T04:16:48;5.00;1.00
5459;DHT22;2752;49.992;8.422;2023-04-03T04:19:15;5.00;1.00
5459;DHT22;2752;49.992;8.422;2023-04-03T04:21:42;4.90;1.00
5459;DHT22;2752;49.992;8.422;2023-04-03T04:24:10;4.80;1.00
5459;DHT22;2752;49.992;8.422;2023-04-03T04:26:37;4.80;1.00
5459;DHT22;2752;49.992;8.422;2023-04-03T04:29:03;4.80;1.00
5459;DHT22;2752;49.992;8.422;2023-04-03T04:33:57;4.70;1.00
5459;DHT22;2752;49.992;8.422;2023-04-03T04:36:24;4.60;1.00
5459;DHT22;2752;49.992;8.422;2023-04-03T04:38:51;4.50;1.00
5459;DHT22;2752;49.992;8.422;2023-04-03T04:41:20;4.50;1.00
5459;DHT22;2752;49.992;8.422;2023-04-03T04:43:48;4.50;1.00
5459;DHT22;2752;49.992;8.422;2023-04-03T04:46:15;4.50;1.00
5459;DHT22;2752;49.992;8.422;2023-04-03T04:48:41;4.50;1.00
5459;DHT22;2752;49.992;8.422;2023-04-03T04:51:08;4.40;1.00
5459;DHT22;2752;49.992;8.422;2023-04-03T04:53:35;4.30;1.00
5459;DHT22;2752;49.992;8.422;2023-04-03T04:56:02;4.20;1.00
5459;DHT22;2752;49.992;8.422;2023-04-03T04:58:30;4.20;1.00
5459;DHT22;2752;49.992;8.422;2023-04-03T05:01:00;4.10;1.00
5459;DHT22;2752;49.992;8.422;2023-04-03T05:03:27;4.00;1.00
5459;DHT22;2752;49.992;8.422;2023-04-03T05:05:53;4.00;1.00
5459;DHT22;2752;49.992;8.422;2023-04-03T05:08:20;3.90;1.00
5459;DHT22;2752;49.992;8.422;2023-04-03T05:10:47;3.90;1.00
5459;DHT22;2752;49.992;8.422;2023-04-03T05:13:14;3.90;1.00
5459;DHT22;2752;49.992;8.422;2023-04-03T05:15:42;3.80;1.00
5459;DHT22;2752;49.992;8.422;2023-04-03T05:18:08;3.80;1.00
5459;DHT22;2752;49.992;8.422;2023-04-03T05:20:35;3.80;1.00
5459;DHT22;2752;49.992;8.422;2023-04-03T05:23:02;3.70;1.00
5459;DHT22;2752;49.992;8.422;2023-04-03T05:25:29;3.70;1.00
5459;DHT22;2752;49.992;8.422;2023-04-03T05:27:56;3.70;1.00
5459;DHT22;2752;49.992;8.422;2023-04-03T05:30:23;3.70;1.00
5459;DHT22;2752;49.992;8.422;2023-04-03T05:32:51;3.80;1.00
5459;DHT22;2752;49.992;8.422;2023-04-03T05:35:18;3.70;1.00
5459;DHT22;2752;49.992;8.422;2023-04-03T05:37:45;3.70;1.00
5459;DHT22;2752;49.992;8.422;2023-04-03T05:40:11;3.30;1.00
5459;DHT22;2752;49.992;8.422;2023-04-03T05:42:38;3.70;1.00
5459;DHT22;2752;49.992;8.422;2023-04-03T05:45:06;3.70;1.00
5459;DHT22;2752;49.992;8.422;2023-04-03T05:47:32;3.80;1.00
5459;DHT22;2752;49.992;8.422;2023-04-03T05:50:01;3.80;1.00
5459;DHT22;2752;49.992;8.422;2023-04-03T05:52:29;3.90;1.00
5459;DHT22;2752;49.992;8.422;2023-04-03T05:54:56;3.90;1.00
5459;DHT22;2752;49.992;8.422;2023-04-03T05:57:23;3.90;1.00
5459;DHT22;2752;49.992;8.422;2023-04-03T05:59:51;4.00;1.00
5459;DHT22;2752;49.992;8.422;2023-04-03T06:02:20;4.10;1.00
5459;DHT22;2752;49.992;8.422;2023-04-03T06:04:48;4.00;1.00
5459;DHT22;2752;49.992;8.422;2023-04-03T06:07:17;4.20;1.00
5459;DHT22;2752;49.992;8.422;2023-04-03T06:09:47;4.20;1.00
5459;DHT22;2752;49.992;8.422;2023-04-03T06:12:14;4.30;1.00
5459;DHT22;2752;49.992;8.422;2023-04-03T06:17:08;4.40;1.00
5459;DHT22;2752;49.992;8.422;2023-04-03T06:19:36;4.40;1.00
5459;DHT22;2752;49.992;8.422;2023-04-03T06:22:02;4.50;1.00
5459;DHT22;2752;49.992;8.422;2023-04-03T06:24:31;4.40;1.00
5459;DHT22;2752;49.992;8.422;2023-04-03T06:26:58;4.30;1.00
5459;DHT22;2752;49.992;8.422;2023-04-03T06:29:25;3.90;1.00
5459;DHT22;2752;49.992;8.422;2023-04-03T06:31:52;4.20;1.00
5459;DHT22;2752;49.992;8.422;2023-04-03T06:34:19;4.20;1.00
5459;DHT22;2752;49.992;8.422;2023-04-03T06:36:45;4.20;1.00
5459;DHT22;2752;49.992;8.422;2023-04-03T06:39:14;4.10;1.00
5459;DHT22;2752;49.992;8.422;2023-04-03T06:41:43;4.20;1.00
5459;DHT22;2752;49.992;8.422;2023-04-03T06:44:10;4.30;1.00
5459;DHT22;2752;49.992;8.422;2023-04-03T06:46:39;4.30;1.00
5459;DHT22;2752;49.992;8.422;2023-04-03T06:49:05;4.30;1.00
5459;DHT22;2752;49.992;8.422;2023-04-03T06:51:34;4.40;1.00
5459;DHT22;2752;49.992;8.422;2023-04-03T06:54:03;4.50;1.00
5459;DHT22;2752;49.992;8.422;2023-04-03T06:56:30;4.60;1.00
5459;DHT22;2752;49.992;8.422;2023-04-03T06:58:58;4.30;1.00
5459;DHT22;2752;49.992;8.422;2023-04-03T07:01:26;4.60;1.00
5459;DHT22;2752;49.992;8.422;2023-04-03T07:03:54;4.70;1.00
5459;DHT22;2752;49.992;8.422;2023-04-03T07:06:21;4.70;1.00
5459;DHT22;2752;49.992;8.422;2023-04-03T07:08:48;4.70;1.00
5459;DHT22;2752;49.992;8.422;2023-04-03T07:13:43;4.80;1.00
5459;DHT22;2752;49.992;8.422;2023-04-03T07:16:11;4.80;1.00
5459;DHT22;2752;49.992;8.422;2023-04-03T07:18:38;4.70;1.00
5459;DHT22;2752;49.992;8.422;2023-04-03T07:21:05;4.80;1.00
5459;DHT22;2752;49.992;8.422;2023-04-03T07:23:32;4.80;1.00
5459;DHT22;2752;49.992;8.422;2023-04-03T07:28:27;5.00;1.00
5459;DHT22;2752;49.992;8.422;2023-04-03T07:30:59;5.10;1.00
5459;DHT22;2752;49.992;8.422;2023-04-03T07:33:27;5.00;1.00
5459;DHT22;2752;49.992;8.422;2023-04-03T07:35:54;5.10;1.00
5459;DHT22;2752;49.992;8.422;2023-04-03T07:38:21;5.10;1.00
5459;DHT22;2752;49.992;8.422;2023-04-03T07:40:49;5.00;1.00
5459;DHT22;2752;49.992;8.422;2023-04-03T07:43:19;5.10;1.00
5459;DHT22;2752;49.992;8.422;2023-04-03T07:45:47;5.00;1.00
5459;DHT22;2752;49.992;8.422;2023-04-03T07:48:16;5.10;1.00
5459;DHT22;2752;49.992;8.422;2023-04-03T07:50:44;5.00;1.00
5459;DHT22;2752;49.992;8.422;2023-04-03T07:53:11;5.00;1.00
5459;DHT22;2752;49.992;8.422;2023-04-03T07:55:39;5.00;1.00
5459;DHT22;2752;49.992;8.422;2023-04-03T07:58:08;5.00;1.00
5459;DHT22;2752;49.992;8.422;2023-04-03T08:00:36;5.00;1.00
5459;DHT22;2752;49.992;8.422;2023-04-03T08:05:30;5.20;1.00
5459;DHT22;2752;49.992;8.422;2023-04-03T08:07:58;5.30;1.00
5459;DHT22;2752;49.992;8.422;2023-04-03T08:10:25;5.40;1.00
5459;DHT22;2752;49.992;8.422;2023-04-03T08:12:52;5.30;1.00
5459;DHT22;2752;49.992;8.422;2023-04-03T08:15:19;5.20;1.00
5459;DHT22;2752;49.992;8.422;2023-04-03T08:17:46;5.30;1.00
5459;DHT22;2752;49.992;8.422;2023-04-03T08:20:13;5.60;1.00
5459;DHT22;2752;49.992;8.422;2023-04-03T08:22:39;5.50;1.00
5459;DHT22;2752;49.992;8.422;2023-04-03T08:25:08;5.50;1.00
5459;DHT22;2752;49.992;8.422;2023-04-03T08:27:35;5.60;1.00
5459;DHT22;2752;49.992;8.422;2023-04-03T08:30:03;5.60;1.00
5459;DHT22;2752;49.992;8.422;2023-04-03T08:32:30;5.70;1.00
5459;DHT22;2752;49.992;8.422;2023-04-03T08:34:56;5.80;1.00
5459;DHT22;2752;49.992;8.422;2023-04-03T08:37:23;5.80;1.00
5459;DHT22;2752;49.992;8.422;2023-04-03T08:39:50;5.80;1.00
5459;DHT22;2752;49.992;8.422;2023-04-03T08:42:24;5.80;1.00
5459;DHT22;2752;49.992;8.422;2023-04-03T08:44:58;5.90;1.00
5459;DHT22;2752;49.992;8.422;2023-04-03T08:47:30;5.80;1.00
5459;DHT22;2752;49.992;8.422;2023-04-03T08:50:05;6.00;1.00
5459;DHT22;2752;49.992;8.422;2023-04-03T08:52:36;6.20;1.00
5459;DHT22;2752;49.992;8.422;2023-04-03T08:55:07;6.30;1.00
5459;DHT22;2752;49.992;8.422;2023-04-03T08:57:43;6.30;1.00
5459;DHT22;2752;49.992;8.422;2023-04-03T09:00:17;6.20;1.00
5459;DHT22;2752;49.992;8.422;2023-04-03T09:02:46;6.20;1.00
5459;DHT22;2752;49.992;8.422;2023-04-03T09:05:15;6.20;1.00
5459;DHT22;2752;49.992;8.422;2023-04-03T09:07:44;6.20;1.00
5459;DHT22;2752;49.992;8.422;2023-04-03T09:10:14;6.40;1.00
5459;DHT22;2752;49.992;8.422;2023-04-03T09:12:44;6.50;1.00
5459;DHT22;2752;49.992;8.422;2023-04-03T09:15:19;6.40;1.00
5459;DHT22;2752;49.992;8.422;2023-04-03T09:17:54;6.30;1.00
5459;DHT22;2752;49.992;8.422;2023-04-03T09:20:29;6.20;1.00
5459;DHT22;2752;49.992;8.422;2023-04-03T09:22:58;6.30;1.00
5459;DHT22;2752;49.992;8.422;2023-04-03T09:25:26;6.30;1.00
5459;DHT22;2752;49.992;8.422;2023-04-03T09:27:55;6.30;1.00
5459;DHT22;2752;49.992;8.422;2023-04-03T09:30:24;6.30;1.00
5459;DHT22;2752;49.992;8.422;2023-04-03T09:32:52;6.30;1.00
5459;DHT22;2752;49.992;8.422;2023-04-03T09:35:21;6.20;1.00
5459;DHT22;2752;49.992;8.422;2023-04-03T09:37:50;6.30;1.00
5459;DHT22;2752;49.992;8.422;2023-04-03T09:40:33;6.50;1.00
5459;DHT22;2752;49.992;8.422;2023-04-03T09:43:18;6.80;1.00
5459;DHT22;2752;49.992;8.422;2023-04-03T09:45:47;6.70;1.00
5459;DHT22;2752;49.992;8.422;2023-04-03T09:48:17;6.60;1.00
5459;DHT22;2752;49.992;8.422;2023-04-03T09:50:59;6.70;1.00
5459;DHT22;2752;49.992;8.422;2023-04-03T09:53:34;6.80;1.00
5459;DHT22;2752;49.992;8.422;2023-04-03T09:56:04;7.00;1.00
5459;DHT22;2752;49.992;8.422;2023-04-03T09:58:36;7.40;1.00
5459;DHT22;2752;49.992;8.422;2023-04-03T10:01:06;7.50;1.00
5459;DHT22;2752;49.992;8.422;2023-04-03T10:04:06;7.60;1.00
5459;DHT22;2752;49.992;8.422;2023-04-03T10:06:34;7.60;1.00
5459;DHT22;2752;49.992;8.422;2023-04-03T10:09:04;7.60;1.00
5459;DHT22;2752;49.992;8.422;2023-04-03T10:14:00;7.90;1.00
5459;DHT22;2752;49.992;8.422;2023-04-03T10:16:38;8.00;1.00
5459;DHT22;2752;49.992;8.422;2023-04-03T10:19:19;8.20;1.00
5459;DHT22;2752;49.992;8.422;2023-04-03T10:21:52;8.10;1.00
5459;DHT22;2752;49.992;8.422;2023-04-03T10:24:25;8.10;1.00
5459;DHT22;2752;49.992;8.422;2023-04-03T10:26:58;8.20;1.00
5459;DHT22;2752;49.992;8.422;2023-04-03T10:29:40;8.30;1.00
5459;DHT22;2752;49.992;8.422;2023-04-03T10:32:24;8.50;1.00
5459;DHT22;2752;49.992;8.422;2023-04-03T10:34:58;8.50;1.00
5459;DHT22;2752;49.992;8.422;2023-04-03T10:37:30;8.50;1.00
5459;DHT22;2752;49.992;8.422;2023-04-03T10:40:05;8.60;1.00
5459;DHT22;2752;49.992;8.422;2023-04-03T10:42:42;8.50;1.00
5459;DHT22;2752;49.992;8.422;2023-04-03T10:45:24;8.50;1.00
5459;DHT22;2752;49.992;8.422;2023-04-03T10:48:00;8.20;1.00
5459;DHT22;2752;49.992;8.422;2023-04-03T10:50:38;7.90;1.00
5459;DHT22;2752;49.992;8.422;2023-04-03T10:53:13;7.80;1.00
5459;DHT22;2752;49.992;8.422;2023-04-03T10:55:45;7.50;1.00
5459;DHT22;2752;49.992;8.422;2023-04-03T10:58:19;7.30;1.00
5459;DHT22;2752;49.992;8.422;2023-04-03T11:00:50;7.40;1.00
5459;DHT22;2752;49.992;8.422;2023-04-03T11:03:27;7.60;1.00
5459;DHT22;2752;49.992;8.422;2023-04-03T11:05:55;7.40;1.00
5459;DHT22;2752;49.992;8.422;2023-04-03T11:08:27;7.60;1.00
5459;DHT22;2752;49.992;8.422;2023-04-03T11:10:57;7.50;1.00
5459;DHT22;2752;49.992;8.422;2023-04-03T11:13:30;7.40;1.00
5459;DHT22;2752;49.992;8.422;2023-04-03T11:16:00;7.80;1.00
5459;DHT22;2752;49.992;8.422;2023-04-03T11:18:32;7.90;1.00
5459;DHT22;2752;49.992;8.422;2023-04-03T11:21:06;7.90;1.00
5459;DHT22;2752;49.992;8.422;2023-04-03T11:23:36;7.60;1.00
5459;DHT22;2752;49.992;8.422;2023-04-03T11:26:09;7.60;1.00
5459;DHT22;2752;49.992;8.422;2023-04-03T11:28:36;7.70;1.00
5459;DHT22;2752;49.992;8.422;2023-04-03T11:31:21;8.00;1.00
5459;DHT22;2752;49.992;8.422;2023-04-03T11:34:09;8.10;1.00
5459;DHT22;2752;49.992;8.422;2023-04-03T11:36:41;8.30;1.00
5459;DHT22;2752;49.992;8.422;2023-04-03T11:39:19;8.20;1.00
5459;DHT22;2752;49.992;8.422;2023-04-03T11:41:47;8.10;1.00
5459;DHT22;2752;49.992;8.422;2023-04-03T11:44:34;8.00;1.00
5459;DHT22;2752;49.992;8.422;2023-04-03T11:47:04;8.00;1.00
5459;DHT22;2752;49.992;8.422;2023-04-03T11:49:50;7.80;1.00
5459;DHT22;2752;49.992;8.422;2023-04-03T11:52:54;7.90;1.00
5459;DHT22;2752;49.992;8.422;2023-04-03T11:55:42;7.80;1.00
5459;DHT22;2752;49.992;8.422;2023-04-03T11:58:14;7.70;1.00
5459;DHT22;2752;49.992;8.422;2023-04-03T12:00:53;8.00;1.00
5459;DHT22;2752;49.992;8.422;2023-04-03T12:06:48;8.10;1.00
5459;DHT22;2752;49.992;8.422;2023-04-03T12:09:27;8.40;1.00
5459;DHT22;2752;49.992;8.422;2023-04-03T12:11:56;8.20;1.00
5459;DHT22;2752;49.992;8.422;2023-04-03T12:14:24;8.10;1.00
5459;DHT22;2752;49.992;8.422;2023-04-03T12:16:53;8.30;1.00
5459;DHT22;2752;49.992;8.422;2023-04-03T12:19:36;8.40;1.00
5459;DHT22;2752;49.992;8.422;2023-04-03T12:22:11;8.70;1.00
5459;DHT22;2752;49.992;8.422;2023-04-03T12:24:39;8.80;1.00
5459;DHT22;2752;49.992;8.422;2023-04-03T12:27:17;8.90;1.00
5459;DHT22;2752;49.992;8.422;2023-04-03T12:29:51;8.80;1.00
5459;DHT22;2752;49.992;8.422;2023-04-03T12:32:32;9.00;1.00
5459;DHT22;2752;49.992;8.422;2023-04-03T12:35:14;9.20;1.00
5459;DHT22;2752;49.992;8.422;2023-04-03T12:37:56;8.40;1.00
5459;DHT22;2752;49.992;8.422;2023-04-03T12:40:31;8.80;1.00
5459;DHT22;2752;49.992;8.422;2023-04-03T12:43:14;8.90;1.00
5459;DHT22;2752;49.992;8.422;2023-04-03T12:45:47;9.10;1.00
5459;DHT22;2752;49.992;8.422;2023-04-03T12:48:17;9.00;1.00
5459;DHT22;2752;49.992;8.422;2023-04-03T12:50:47;8.80;1.00
5459;DHT22;2752;49.992;8.422;2023-04-03T12:53:18;9.00;1.00
5459;DHT22;2752;49.992;8.422;2023-04-03T12:55:46;9.00;1.00
5459;DHT22;2752;49.992;8.422;2023-04-03T12:58:19;9.10;1.00
5459;DHT22;2752;49.992;8.422;2023-04-03T13:00:59;9.00;1.00
5459;DHT22;2752;49.992;8.422;2023-04-03T13:03:27;9.10;1.00
5459;DHT22;2752;49.992;8.422;2023-04-03T13:05:59;9.30;1.00
5459;DHT22;2752;49.992;8.422;2023-04-03T13:08:27;9.30;1.00
5459;DHT22;2752;49.992;8.422;2023-04-03T13:10:58;9.20;1.00
5459;DHT22;2752;49.992;8.422;2023-04-03T13:13:26;9.00;1.00
5459;DHT22;2752;49.992;8.422;2023-04-03T13:15:53;8.80;1.00
5459;DHT22;2752;49.992;8.422;2023-04-03T13:18:26;8.90;1.00
5459;DHT22;2752;49.992;8.422;2023-04-03T13:20:53;9.00;1.00
5459;DHT22;2752;49.992;8.422;2023-04-03T13:23:25;9.00;1.00
5459;DHT22;2752;49.992;8.422;2023-04-03T13:25:51;9.20;1.00
5459;DHT22;2752;49.992;8.422;2023-04-03T13:28:20;9.30;1.00
5459;DHT22;2752;49.992;8.422;2023-04-03T13:30:57;9.40;1.00
5459;DHT22;2752;49.992;8.422;2023-04-03T13:33:29;9.20;1.00
5459;DHT22;2752;49.992;8.422;2023-04-03T13:36:17;8.90;1.00
5459;DHT22;2752;49.992;8.422;2023-04-03T13:38:46;9.10;1.00
5459;DHT22;2752;49.992;8.422;2023-04-03T13:41:26;9.20;1.00
5459;DHT22;2752;49.992;8.422;2023-04-03T13:43:52;9.00;1.00
5459;DHT22;2752;49.992;8.422;2023-04-03T13:46:25;9.00;1.00
5459;DHT22;2752;49.992;8.422;2023-04-03T13:48:54;9.20;1.00
5459;DHT22;2752;49.992;8.422;2023-04-03T13:51:24;9.10;1.00
5459;DHT22;2752;49.992;8.422;2023-04-03T13:53:54;9.20;1.00
5459;DHT22;2752;49.992;8.422;2023-04-03T13:56:29;9.00;1.00
5459;DHT22;2752;49.992;8.422;2023-04-03T13:59:05;8.90;1.00
5459;DHT22;2752;49.992;8.422;2023-04-03T14:01:41;9.00;1.00
5459;DHT22;2752;49.992;8.422;2023-04-03T14:04:15;9.00;1.00
5459;DHT22;2752;49.992;8.422;2023-04-03T14:06:42;8.80;1.00
5459;DHT22;2752;49.992;8.422;2023-04-03T14:09:10;9.20;1.00
5459;DHT22;2752;49.992;8.422;2023-04-03T14:11:37;9.10;1.00
5459;DHT22;2752;49.992;8.422;2023-04-03T14:14:09;9.30;1.00
5459;DHT22;2752;49.992;8.422;2023-04-03T14:16:40;9.30;1.00
5459;DHT22;2752;49.992;8.422;2023-04-03T14:19:09;9.40;1.00
5459;DHT22;2752;49.992;8.422;2023-04-03T14:21:41;9.30;1.00
5459;DHT22;2752;49.992;8.422;2023-04-03T14:24:07;9.40;1.00
5459;DHT22;2752;49.992;8.422;2023-04-03T14:26:35;9.50;1.00
5459;DHT22;2752;49.992;8.422;2023-04-03T14:29:02;9.50;1.00
5459;DHT22;2752;49.992;8.422;2023-04-03T14:31:29;9.50;1.00
5459;DHT22;2752;49.992;8.422;2023-04-03T14:33:56;9.30;1.00
5459;DHT22;2752;49.992;8.422;2023-04-03T14:36:24;9.30;1.00
5459;DHT22;2752;49.992;8.422;2023-04-03T14:38:52;9.20;1.00
5459;DHT22;2752;49.992;8.422;2023-04-03T14:41:21;9.20;1.00
5459;DHT22;2752;49.992;8.422;2023-04-03T14:43:50;9.20;1.00
5459;DHT22;2752;49.992;8.422;2023-04-03T14:46:18;9.20;1.00
5459;DHT22;2752;49.992;8.422;2023-04-03T14:48:46;9.30;1.00
5459;DHT22;2752;49.992;8.422;2023-04-03T14:51:14;9.50;1.00
5459;DHT22;2752;49.992;8.422;2023-04-03T14:53:42;9.60;1.00
5459;DHT22;2752;49.992;8.422;2023-04-03T14:56:12;9.40;1.00
5459;DHT22;2752;49.992;8.422;2023-04-03T14:58:39;9.40;1.00
5459;DHT22;2752;49.992;8.422;2023-04-03T15:01:09;9.20;1.00
5459;DHT22;2752;49.992;8.422;2023-04-03T15:03:37;9.00;1.00
5459;DHT22;2752;49.992;8.422;2023-04-03T15:06:04;9.10;1.00
5459;DHT22;2752;49.992;8.422;2023-04-03T15:08:31;9.20;1.00
5459;DHT22;2752;49.992;8.422;2023-04-03T15:10:57;9.20;1.00
5459;DHT22;2752;49.992;8.422;2023-04-03T15:13:24;9.20;1.00
5459;DHT22;2752;49.992;8.422;2023-04-03T15:15:52;9.20;1.00
5459;DHT22;2752;49.992;8.422;2023-04-03T15:18:22;9.10;1.00
5459;DHT22;2752;49.992;8.422;2023-04-03T15:20:52;9.00;1.00
5459;DHT22;2752;49.992;8.422;2023-04-03T15:23:18;8.80;1.00
5459;DHT22;2752;49.992;8.422;2023-04-03T15:25:47;8.80;1.00
5459;DHT22;2752;49.992;8.422;2023-04-03T15:28:19;8.90;1.00
5459;DHT22;2752;49.992;8.422;2023-04-03T15:30:48;8.90;1.00
5459;DHT22;2752;49.992;8.422;2023-04-03T15:33:14;9.00;1.00
5459;DHT22;2752;49.992;8.422;2023-04-03T15:35:43;8.80;1.00
5459;DHT22;2752;49.992;8.422;2023-04-03T15:38:09;8.80;1.00
5459;DHT22;2752;49.992;8.422;2023-04-03T15:40:36;9.00;1.00
5459;DHT22;2752;49.992;8.422;2023-04-03T15:43:04;9.00;1.00
5459;DHT22;2752;49.992;8.422;2023-04-03T15:45:31;9.00;1.00
5459;DHT22;2752;49.992;8.422;2023-04-03T15:47:58;9.10;1.00
5459;DHT22;2752;49.992;8.422;2023-04-03T15:50:25;9.10;1.00
5459;DHT22;2752;49.992;8.422;2023-04-03T15:52:53;9.20;1.00
5459;DHT22;2752;49.992;8.422;2023-04-03T15:55:21;9.30;1.00
5459;DHT22;2752;49.992;8.422;2023-04-03T15:57:47;10.10;1.00
5459;DHT22;2752;49.992;8.422;2023-04-03T16:00:15;9.50;1.00
5459;DHT22;2752;49.992;8.422;2023-04-03T16:02:42;9.50;1.00
5459;DHT22;2752;49.992;8.422;2023-04-03T16:05:10;9.50;1.00
5459;DHT22;2752;49.992;8.422;2023-04-03T16:07:37;9.60;1.00
5459;DHT22;2752;49.992;8.422;2023-04-03T16:10:07;9.80;1.00
5459;DHT22;2752;49.992;8.422;2023-04-03T16:12:34;9.80;1.00
5459;DHT22;2752;49.992;8.422;2023-04-03T16:15:01;9.90;1.00
5459;DHT22;2752;49.992;8.422;2023-04-03T16:17:28;9.90;1.00
5459;DHT22;2752;49.992;8.422;2023-04-03T16:19:55;9.80;1.00
5459;DHT22;2752;49.992;8.422;2023-04-03T16:22:24;9.80;1.00
5459;DHT22;2752;49.992;8.422;2023-04-03T16:24:51;9.80;1.00
5459;DHT22;2752;49.992;8.422;2023-04-03T16:27:19;9.80;1.00
5459;DHT22;2752;49.992;8.422;2023-04-03T16:29:46;10.00;1.00
5459;DHT22;2752;49.992;8.422;2023-04-03T16:32:13;10.00;1.00
5459;DHT22;2752;49.992;8.422;2023-04-03T16:34:40;9.70;1.00
5459;DHT22;2752;49.992;8.422;2023-04-03T16:37:07;9.70;1.00
5459;DHT22;2752;49.992;8.422;2023-04-03T16:39:34;9.70;1.00
5459;DHT22;2752;49.992;8.422;2023-04-03T16:42:01;9.50;1.00
5459;DHT22;2752;49.992;8.422;2023-04-03T16:44:29;9.60;1.00
5459;DHT22;2752;49.992;8.422;2023-04-03T16:46:56;9.30;1.00
5459;DHT22;2752;49.992;8.422;2023-04-03T16:49:22;9.10;1.00
5459;DHT22;2752;49.992;8.422;2023-04-03T16:51:49;9.20;1.00
5459;DHT22;2752;49.992;8.422;2023-04-03T16:54:16;9.30;1.00
5459;DHT22;2752;49.992;8.422;2023-04-03T16:56:42;9.30;1.00
5459;DHT22;2752;49.992;8.422;2023-04-03T16:59:09;9.40;1.00
5459;DHT22;2752;49.992;8.422;2023-04-03T17:01:37;9.50;1.00
5459;DHT22;2752;49.992;8.422;2023-04-03T17:04:03;9.40;1.00
5459;DHT22;2752;49.992;8.422;2023-04-03T17:06:30;9.50;1.00
5459;DHT22;2752;49.992;8.422;2023-04-03T17:08:57;9.40;1.00
5459;DHT22;2752;49.992;8.422;2023-04-03T17:11:24;9.30;1.00
5459;DHT22;2752;49.992;8.422;2023-04-03T17:13:51;9.30;1.00